sensor_id;sensor_type;location;lat;lon;timestamp;P1;durP1;ratioP1;P2;durP2;ratioP2
72573;SDS011;60603;52.548;13.420;2023-11-18T00:02:14;7.13;;;3.47;;
72573;SDS011;60603;52.548;13.420;2023-11-18T00:04:41;11.07;;;4.38;;
72573;SDS011;60603;52.548;13.420;2023-11-18T00:07:08;7.85;;;4.13;;
72573;SDS011;60603;52.548;13.420;2023-11-18T00:09:36;8.07;;;3.85;;
72573;SDS011;60603;52.548;13.420;2023-11-18T00:12:03;9.55;;;4.10;;
72573;SDS011;60603;52.548;13.420;2023-11-18T00:14:30;8.00;;;4.20;;
72573;SDS011;60603;52.548;13.420;2023-11-18T00:16:57;8.65;;;4.18;;
72573;SDS011;60603;52.548;13.420;2023-11-18T00:19:25;7.78;;;3.80;;
72573;SDS011;60603;52.548;13.420;2023-11-18T00:21:53;9.25;;;4.50;;
72573;SDS011;60603;52.548;13.420;2023-11-18T00:24:20;7.40;;;3.72;;
72573;SDS011;60603;52.548;13.420;2023-11-18T00:26:50;8.40;;;4.03;;
72573;SDS011;60603;52.548;13.420;2023-11-18T00:29:17;8.93;;;4.50;;
72573;SDS011;60603;52.548;13.420;2023-11-18T00:31:44;7.40;;;3.75;;
72573;SDS011;60603;52.548;13.420;2023-11-18T00:34:11;9.32;;;4.93;;
72573;SDS011;60603;52.548;13.420;2023-11-18T00:36:37;7.82;;;4.10;;
72573;SDS011;60603;52.548;13.420;2023-11-18T00:39:04;8.50;;;4.10;;
72573;SDS011;60603;52.548;13.420;2023-11-18T00:41:31;8.57;;;4.72;;
72573;SDS011;60603;52.548;13.420;2023-11-18T00:43:58;10.27;;;4.38;;
72573;SDS011;60603;52.548;13.420;2023-11-18T00:46:25;9.05;;;4.00;;
72573;SDS011;60603;52.548;13.420;2023-11-18T00:48:52;9.30;;;4.53;;
72573;SDS011;60603;52.548;13.420;2023-11-18T00:51:19;9.05;;;4.22;;
72573;SDS011;60603;52.548;13.420;2023-11-18T00:53:46;10.32;;;4.32;;
72573;SDS011;60603;52.548;13.420;2023-11-18T00:56:14;6.72;;;3.50;;
72573;SDS011;60603;52.548;13.420;2023-11-18T00:58:44;7.07;;;3.47;;
72573;SDS011;60603;52.548;13.420;2023-11-18T01:01:11;8.30;;;4.25;;
72573;SDS011;60603;52.548;13.420;2023-11-18T01:03:38;7.57;;;4.07;;
72573;SDS011;60603;52.548;13.420;2023-11-18T01:06:05;8.18;;;4.07;;
72573;SDS011;60603;52.548;13.420;2023-11-18T01:08:33;10.05;;;4.72;;
72573;SDS011;60603;52.548;13.420;2023-11-18T01:10:59;8.93;;;3.47;;
72573;SDS011;60603;52.548;13.420;2023-11-18T01:13:26;7.97;;;3.90;;
72573;SDS011;60603;52.548;13.420;2023-11-18T01:15:53;7.25;;;3.83;;
72573;SDS011;60603;52.548;13.420;2023-11-18T01:18:20;8.50;;;4.00;;
72573;SDS011;60603;52.548;13.420;2023-11-18T01:20:47;9.05;;;4.47;;
72573;SDS011;60603;52.548;13.420;2023-11-18T01:23:14;8.00;;;4.28;;
72573;SDS011;60603;52.548;13.420;2023-11-18T01:25:42;7.45;;;3.70;;
72573;SDS011;60603;52.548;13.420;2023-11-18T01:28:09;8.45;;;3.88;;
72573;SDS011;60603;52.548;13.420;2023-11-18T01:30:36;7.07;;;3.47;;
72573;SDS011;60603;52.548;13.420;2023-11-18T01:33:03;7.85;;;3.88;;
72573;SDS011;60603;52.548;13.420;2023-11-18T01:35:30;8.55;;;3.70;;
72573;SDS011;60603;52.548;13.420;2023-11-18T01:37:58;8.40;;;4.32;;
72573;SDS011;60603;52.548;13.420;2023-11-18T01:40:25;9.65;;;3.97;;
72573;SDS011;60603;52.548;13.420;2023-11-18T01:42:52;10.43;;;4.38;;
72573;SDS011;60603;52.548;13.420;2023-11-18T01:45:18;7.90;;;3.85;;
72573;SDS011;60603;52.548;13.420;2023-11-18T01:47:46;7.55;;;3.58;;
72573;SDS011;60603;52.548;13.420;2023-11-18T01:50:15;8.27;;;4.22;;
72573;SDS011;60603;52.548;13.420;2023-11-18T01:52:44;8.38;;;3.60;;
72573;SDS011;60603;52.548;13.420;2023-11-18T01:55:12;7.15;;;3.28;;
72573;SDS011;60603;52.548;13.420;2023-11-18T01:57:40;7.32;;;3.67;;
72573;SDS011;60603;52.548;13.420;2023-11-18T02:00:10;8.75;;;3.92;;
72573;SDS011;60603;52.548;13.420;2023-11-18T02:02:38;9.10;;;4.25;;
72573;SDS011;60603;52.548;13.420;2023-11-18T02:05:06;7.85;;;3.97;;
72573;SDS011;60603;52.548;13.420;2023-11-18T02:07:34;6.78;;;3.40;;
72573;SDS011;60603;52.548;13.420;2023-11-18T02:10:05;7.18;;;3.78;;
72573;SDS011;60603;52.548;13.420;2023-11-18T02:12:50;6.97;;;3.47;;
72573;SDS011;60603;52.548;13.420;2023-11-18T02:15:19;7.50;;;3.85;;
72573;SDS011;60603;52.548;13.420;2023-11-18T02:17:47;7.47;;;3.78;;
72573;SDS011;60603;52.548;13.420;2023-11-18T02:20:15;8.38;;;3.97;;
72573;SDS011;60603;52.548;13.420;2023-11-18T02:22:43;8.73;;;3.08;;
72573;SDS011;60603;52.548;13.420;2023-11-18T02:25:16;8.10;;;3.80;;
72573;SDS011;60603;52.548;13.420;2023-11-18T02:27:45;8.07;;;3.90;;
72573;SDS011;60603;52.548;13.420;2023-11-18T02:30:12;9.68;;;4.22;;
72573;SDS011;60603;52.548;13.420;2023-11-18T02:32:45;7.13;;;3.58;;
72573;SDS011;60603;52.548;13.420;2023-11-18T02:35:20;8.20;;;4.38;;
72573;SDS011;60603;52.548;13.420;2023-11-18T02:37:50;7.95;;;3.05;;
72573;SDS011;60603;52.548;13.420;2023-11-18T02:40:37;7.85;;;3.72;;
72573;SDS011;60603;52.548;13.420;2023-11-18T02:43:11;9.02;;;4.10;;
72573;SDS011;60603;52.548;13.420;2023-11-18T02:45:37;9.57;;;4.10;;
72573;SDS011;60603;52.548;13.420;2023-11-18T02:48:06;12.80;;;4.85;;
72573;SDS011;60603;52.548;13.420;2023-11-18T02:50:34;8.45;;;3.83;;
72573;SDS011;60603;52.548;13.420;2023-11-18T02:53:02;8.57;;;3.80;;
72573;SDS011;60603;52.548;13.420;2023-11-18T02:55:29;9.63;;;4.22;;
72573;SDS011;60603;52.548;13.420;2023-11-18T02:57:56;7.80;;;4.00;;
72573;SDS011;60603;52.548;13.420;2023-11-18T03:00:23;9.27;;;4.35;;
72573;SDS011;60603;52.548;13.420;2023-11-18T03:02:50;9.68;;;4.47;;
72573;SDS011;60603;52.548;13.420;2023-11-18T03:05:19;9.43;;;4.13;;
72573;SDS011;60603;52.548;13.420;2023-11-18T03:07:47;8.57;;;3.72;;
72573;SDS011;60603;52.548;13.420;2023-11-18T03:10:16;9.13;;;4.15;;
72573;SDS011;60603;52.548;13.420;2023-11-18T03:12:50;8.32;;;3.40;;
72573;SDS011;60603;52.548;13.420;2023-11-18T03:15:19;9.48;;;4.38;;
72573;SDS011;60603;52.548;13.420;2023-11-18T03:17:48;8.55;;;3.85;;
72573;SDS011;60603;52.548;13.420;2023-11-18T03:20:17;7.13;;;3.65;;
72573;SDS011;60603;52.548;13.420;2023-11-18T03:22:49;10.15;;;3.67;;
72573;SDS011;60603;52.548;13.420;2023-11-18T03:25:17;7.03;;;3.92;;
72573;SDS011;60603;52.548;13.420;2023-11-18T03:27:46;9.10;;;3.78;;
72573;SDS011;60603;52.548;13.420;2023-11-18T03:30:12;7.63;;;3.67;;
72573;SDS011;60603;52.548;13.420;2023-11-18T03:32:39;10.00;;;3.95;;
72573;SDS011;60603;52.548;13.420;2023-11-18T03:35:07;8.07;;;3.72;;
72573;SDS011;60603;52.548;13.420;2023-11-18T03:37:36;9.10;;;3.75;;
72573;SDS011;60603;52.548;13.420;2023-11-18T03:40:09;7.43;;;4.13;;
72573;SDS011;60603;52.548;13.420;2023-11-18T03:42:43;8.52;;;3.95;;
72573;SDS011;60603;52.548;13.420;2023-11-18T03:45:12;8.20;;;3.78;;
72573;SDS011;60603;52.548;13.420;2023-11-18T03:47:42;8.45;;;4.20;;
72573;SDS011;60603;52.548;13.420;2023-11-18T03:50:09;8.75;;;4.13;;
72573;SDS011;60603;52.548;13.420;2023-11-18T03:52:36;8.80;;;3.22;;
72573;SDS011;60603;52.548;13.420;2023-11-18T03:55:04;7.50;;;3.85;;
72573;SDS011;60603;52.548;13.420;2023-11-18T03:57:32;8.40;;;3.67;;
72573;SDS011;60603;52.548;13.420;2023-11-18T03:59:59;7.60;;;3.58;;
72573;SDS011;60603;52.548;13.420;2023-11-18T04:02:26;7.97;;;3.47;;
72573;SDS011;60603;52.548;13.420;2023-11-18T04:04:54;7.28;;;3.53;;
72573;SDS011;60603;52.548;13.420;2023-11-18T04:07:21;6.93;;;3.20;;
72573;SDS011;60603;52.548;13.420;2023-11-18T04:09:48;7.38;;;3.63;;
72573;SDS011;60603;52.548;13.420;2023-11-18T04:12:15;7.13;;;3.33;;
72573;SDS011;60603;52.548;13.420;2023-11-18T04:14:42;7.97;;;3.45;;
72573;SDS011;60603;52.548;13.420;2023-11-18T04:17:09;6.72;;;3.28;;
72573;SDS011;60603;52.548;13.420;2023-11-18T04:19:36;7.32;;;3.40;;
72573;SDS011;60603;52.548;13.420;2023-11-18T04:22:04;8.40;;;4.05;;
72573;SDS011;60603;52.548;13.420;2023-11-18T04:24:31;8.05;;;3.45;;
72573;SDS011;60603;52.548;13.420;2023-11-18T04:26:58;7.90;;;3.33;;
72573;SDS011;60603;52.548;13.420;2023-11-18T04:29:25;6.13;;;3.15;;
72573;SDS011;60603;52.548;13.420;2023-11-18T04:31:53;8.00;;;3.53;;
72573;SDS011;60603;52.548;13.420;2023-11-18T04:34:20;7.78;;;3.50;;
72573;SDS011;60603;52.548;13.420;2023-11-18T04:36:47;7.10;;;3.50;;
72573;SDS011;60603;52.548;13.420;2023-11-18T04:39:13;7.50;;;3.63;;
72573;SDS011;60603;52.548;13.420;2023-11-18T04:41:42;8.35;;;3.55;;
72573;SDS011;60603;52.548;13.420;2023-11-18T04:44:10;9.00;;;4.22;;
72573;SDS011;60603;52.548;13.420;2023-11-18T04:46:37;8.38;;;4.13;;
72573;SDS011;60603;52.548;13.420;2023-11-18T04:49:03;7.65;;;4.00;;
72573;SDS011;60603;52.548;13.420;2023-11-18T04:51:32;8.32;;;3.72;;
72573;SDS011;60603;52.548;13.420;2023-11-18T04:53:59;8.65;;;4.18;;
72573;SDS011;60603;52.548;13.420;2023-11-18T04:56:26;8.57;;;3.60;;
72573;SDS011;60603;52.548;13.420;2023-11-18T04:58:53;7.40;;;3.83;;
72573;SDS011;60603;52.548;13.420;2023-11-18T05:01:20;8.88;;;4.10;;
72573;SDS011;60603;52.548;13.420;2023-11-18T05:03:47;9.95;;;4.35;;
72573;SDS011;60603;52.548;13.420;2023-11-18T05:06:14;8.15;;;3.97;;
72573;SDS011;60603;52.548;13.420;2023-11-18T05:08:41;8.70;;;4.03;;
72573;SDS011;60603;52.548;13.420;2023-11-18T05:11:08;7.78;;;3.90;;
72573;SDS011;60603;52.548;13.420;2023-11-18T05:13:35;8.65;;;4.05;;
72573;SDS011;60603;52.548;13.420;2023-11-18T05:16:02;9.55;;;4.20;;
72573;SDS011;60603;52.548;13.420;2023-11-18T05:18:30;9.65;;;4.22;;
72573;SDS011;60603;52.548;13.420;2023-11-18T05:21:02;8.50;;;4.15;;
72573;SDS011;60603;52.548;13.420;2023-11-18T05:23:33;9.05;;;4.40;;
72573;SDS011;60603;52.548;13.420;2023-11-18T05:26:00;8.60;;;3.97;;
72573;SDS011;60603;52.548;13.420;2023-11-18T05:28:28;11.50;;;4.28;;
72573;SDS011;60603;52.548;13.420;2023-11-18T05:30:56;10.85;;;3.92;;
72573;SDS011;60603;52.548;13.420;2023-11-18T05:33:28;9.63;;;4.50;;
72573;SDS011;60603;52.548;13.420;2023-11-18T05:35:55;10.60;;;4.00;;
72573;SDS011;60603;52.548;13.420;2023-11-18T05:38:22;10.65;;;4.57;;
72573;SDS011;60603;52.548;13.420;2023-11-18T05:40:50;11.27;;;4.45;;
72573;SDS011;60603;52.548;13.420;2023-11-18T05:43:24;8.25;;;4.32;;
72573;SDS011;60603;52.548;13.420;2023-11-18T05:45:56;9.98;;;4.35;;
72573;SDS011;60603;52.548;13.420;2023-11-18T05:48:44;10.98;;;4.60;;
72573;SDS011;60603;52.548;13.420;2023-11-18T05:51:11;10.05;;;4.72;;
72573;SDS011;60603;52.548;13.420;2023-11-18T05:53:44;8.13;;;4.03;;
72573;SDS011;60603;52.548;13.420;2023-11-18T05:56:13;11.02;;;4.80;;
72573;SDS011;60603;52.548;13.420;2023-11-18T05:58:40;10.18;;;4.85;;
72573;SDS011;60603;52.548;13.420;2023-11-18T06:01:07;9.30;;;4.00;;
72573;SDS011;60603;52.548;13.420;2023-11-18T06:03:37;9.65;;;4.60;;
72573;SDS011;60603;52.548;13.420;2023-11-18T06:06:10;10.48;;;4.72;;
72573;SDS011;60603;52.548;13.420;2023-11-18T06:08:38;29.40;;;10.43;;
72573;SDS011;60603;52.548;13.420;2023-11-18T06:11:09;16.92;;;6.53;;
72573;SDS011;60603;52.548;13.420;2023-11-18T06:13:49;11.55;;;5.13;;
72573;SDS011;60603;52.548;13.420;2023-11-18T06:16:17;8.88;;;4.40;;
72573;SDS011;60603;52.548;13.420;2023-11-18T06:18:48;12.00;;;5.32;;
72573;SDS011;60603;52.548;13.420;2023-11-18T06:21:26;10.45;;;5.10;;
72573;SDS011;60603;52.548;13.420;2023-11-18T06:24:00;10.75;;;5.00;;
72573;SDS011;60603;52.548;13.420;2023-11-18T06:26:30;10.30;;;4.65;;
72573;SDS011;60603;52.548;13.420;2023-11-18T06:28:57;11.93;;;5.40;;
72573;SDS011;60603;52.548;13.420;2023-11-18T06:31:26;11.25;;;4.82;;
72573;SDS011;60603;52.548;13.420;2023-11-18T06:33:54;10.13;;;5.00;;
72573;SDS011;60603;52.548;13.420;2023-11-18T06:36:21;9.50;;;4.60;;
72573;SDS011;60603;52.548;13.420;2023-11-18T06:38:49;10.95;;;5.03;;
72573;SDS011;60603;52.548;13.420;2023-11-18T06:41:17;12.48;;;5.57;;
72573;SDS011;60603;52.548;13.420;2023-11-18T06:43:45;12.30;;;5.05;;
72573;SDS011;60603;52.548;13.420;2023-11-18T06:46:25;13.80;;;5.22;;
72573;SDS011;60603;52.548;13.420;2023-11-18T06:48:55;11.90;;;5.35;;
72573;SDS011;60603;52.548;13.420;2023-11-18T06:51:25;13.70;;;5.40;;
72573;SDS011;60603;52.548;13.420;2023-11-18T06:53:55;11.05;;;5.03;;
72573;SDS011;60603;52.548;13.420;2023-11-18T06:56:23;13.30;;;6.25;;
72573;SDS011;60603;52.548;13.420;2023-11-18T06:58:50;12.02;;;4.95;;
72573;SDS011;60603;52.548;13.420;2023-11-18T07:01:17;10.63;;;5.65;;
72573;SDS011;60603;52.548;13.420;2023-11-18T07:03:45;12.43;;;4.95;;
72573;SDS011;60603;52.548;13.420;2023-11-18T07:06:18;11.30;;;4.95;;
72573;SDS011;60603;52.548;13.420;2023-11-18T07:08:49;9.90;;;4.72;;
72573;SDS011;60603;52.548;13.420;2023-11-18T07:11:17;11.40;;;5.20;;
72573;SDS011;60603;52.548;13.420;2023-11-18T07:13:44;12.65;;;5.55;;
72573;SDS011;60603;52.548;13.420;2023-11-18T07:16:12;11.50;;;4.70;;
72573;SDS011;60603;52.548;13.420;2023-11-18T07:18:41;10.55;;;5.03;;
72573;SDS011;60603;52.548;13.420;2023-11-18T07:23:38;11.60;;;5.22;;
72573;SDS011;60603;52.548;13.420;2023-11-18T07:26:05;12.77;;;5.63;;
72573;SDS011;60603;52.548;13.420;2023-11-18T07:28:32;12.85;;;6.00;;
72573;SDS011;60603;52.548;13.420;2023-11-18T07:30:59;12.95;;;5.30;;
72573;SDS011;60603;52.548;13.420;2023-11-18T07:33:26;13.48;;;6.57;;
72573;SDS011;60603;52.548;13.420;2023-11-18T07:35:53;11.20;;;5.97;;
72573;SDS011;60603;52.548;13.420;2023-11-18T07:38:21;11.82;;;5.25;;
72573;SDS011;60603;52.548;13.420;2023-11-18T07:40:48;11.80;;;5.30;;
72573;SDS011;60603;52.548;13.420;2023-11-18T07:43:15;12.95;;;5.75;;
72573;SDS011;60603;52.548;13.420;2023-11-18T07:45:42;12.75;;;5.95;;
72573;SDS011;60603;52.548;13.420;2023-11-18T07:48:09;13.35;;;5.93;;
72573;SDS011;60603;52.548;13.420;2023-11-18T07:50:39;14.70;;;6.03;;
72573;SDS011;60603;52.548;13.420;2023-11-18T07:53:11;14.32;;;6.05;;
72573;SDS011;60603;52.548;13.420;2023-11-18T07:55:38;14.60;;;6.28;;
72573;SDS011;60603;52.548;13.420;2023-11-18T07:58:08;12.10;;;6.10;;
72573;SDS011;60603;52.548;13.420;2023-11-18T08:00:42;11.30;;;4.95;;
72573;SDS011;60603;52.548;13.420;2023-11-18T08:03:11;12.73;;;5.57;;
72573;SDS011;60603;52.548;13.420;2023-11-18T08:05:40;11.65;;;5.50;;
72573;SDS011;60603;52.548;13.420;2023-11-18T08:08:12;15.80;;;5.95;;
72573;SDS011;60603;52.548;13.420;2023-11-18T08:10:40;12.80;;;6.00;;
72573;SDS011;60603;52.548;13.420;2023-11-18T08:13:08;15.05;;;5.68;;
72573;SDS011;60603;52.548;13.420;2023-11-18T08:15:40;9.90;;;4.63;;
72573;SDS011;60603;52.548;13.420;2023-11-18T08:18:08;10.27;;;5.00;;
72573;SDS011;60603;52.548;13.420;2023-11-18T08:20:37;9.18;;;4.35;;
72573;SDS011;60603;52.548;13.420;2023-11-18T08:23:04;11.45;;;5.57;;
72573;SDS011;60603;52.548;13.420;2023-11-18T08:25:33;9.25;;;4.20;;
72573;SDS011;60603;52.548;13.420;2023-11-18T08:28:02;9.32;;;4.22;;
72573;SDS011;60603;52.548;13.420;2023-11-18T08:30:37;7.80;;;3.97;;
72573;SDS011;60603;52.548;13.420;2023-11-18T08:33:04;10.43;;;4.50;;
72573;SDS011;60603;52.548;13.420;2023-11-18T08:35:32;7.78;;;4.05;;
72573;SDS011;60603;52.548;13.420;2023-11-18T08:37:59;8.60;;;4.28;;
72573;SDS011;60603;52.548;13.420;2023-11-18T08:40:27;10.80;;;4.68;;
72573;SDS011;60603;52.548;13.420;2023-11-18T08:42:54;9.18;;;4.70;;
72573;SDS011;60603;52.548;13.420;2023-11-18T08:45:23;10.07;;;4.70;;
72573;SDS011;60603;52.548;13.420;2023-11-18T08:48:00;9.82;;;4.30;;
72573;SDS011;60603;52.548;13.420;2023-11-18T08:50:35;9.73;;;4.50;;
72573;SDS011;60603;52.548;13.420;2023-11-18T08:53:03;9.88;;;4.43;;
72573;SDS011;60603;52.548;13.420;2023-11-18T08:55:36;9.45;;;4.32;;
72573;SDS011;60603;52.548;13.420;2023-11-18T08:58:12;7.07;;;3.72;;
72573;SDS011;60603;52.548;13.420;2023-11-18T09:00:46;9.38;;;4.03;;
72573;SDS011;60603;52.548;13.420;2023-11-18T09:03:24;10.25;;;4.57;;
72573;SDS011;60603;52.548;13.420;2023-11-18T09:06:00;8.90;;;4.00;;
72573;SDS011;60603;52.548;13.420;2023-11-18T09:08:32;10.15;;;4.47;;
72573;SDS011;60603;52.548;13.420;2023-11-18T09:11:05;9.52;;;4.13;;
72573;SDS011;60603;52.548;13.420;2023-11-18T09:13:33;9.77;;;4.63;;
72573;SDS011;60603;52.548;13.420;2023-11-18T09:16:07;10.15;;;4.70;;
72573;SDS011;60603;52.548;13.420;2023-11-18T09:18:36;9.93;;;4.60;;
72573;SDS011;60603;52.548;13.420;2023-11-18T09:21:09;9.70;;;4.25;;
72573;SDS011;60603;52.548;13.420;2023-11-18T09:23:42;9.45;;;4.32;;
72573;SDS011;60603;52.548;13.420;2023-11-18T09:26:10;12.38;;;4.65;;
72573;SDS011;60603;52.548;13.420;2023-11-18T09:28:37;12.02;;;4.90;;
72573;SDS011;60603;52.548;13.420;2023-11-18T09:31:04;9.68;;;4.53;;
72573;SDS011;60603;52.548;13.420;2023-11-18T09:33:32;10.07;;;4.22;;
72573;SDS011;60603;52.548;13.420;2023-11-18T09:36:01;9.65;;;4.68;;
72573;SDS011;60603;52.548;13.420;2023-11-18T09:38:34;13.52;;;5.00;;
72573;SDS011;60603;52.548;13.420;2023-11-18T09:41:05;9.13;;;4.65;;
72573;SDS011;60603;52.548;13.420;2023-11-18T09:43:41;8.82;;;4.10;;
72573;SDS011;60603;52.548;13.420;2023-11-18T09:46:12;9.77;;;4.53;;
72573;SDS011;60603;52.548;13.420;2023-11-18T09:51:14;9.18;;;4.60;;
72573;SDS011;60603;52.548;13.420;2023-11-18T09:53:51;10.85;;;4.53;;
72573;SDS011;60603;52.548;13.420;2023-11-18T09:56:25;9.65;;;3.38;;
72573;SDS011;60603;52.548;13.420;2023-11-18T09:59:16;12.07;;;4.07;;
72573;SDS011;60603;52.548;13.420;2023-11-18T10:01:50;7.47;;;3.90;;
72573;SDS011;60603;52.548;13.420;2023-11-18T10:04:20;8.82;;;3.88;;
72573;SDS011;60603;52.548;13.420;2023-11-18T10:06:47;6.20;;;3.10;;
72573;SDS011;60603;52.548;13.420;2023-11-18T10:09:16;6.47;;;2.92;;
72573;SDS011;60603;52.548;13.420;2023-11-18T10:11:47;8.20;;;4.03;;
72573;SDS011;60603;52.548;13.420;2023-11-18T10:14:14;8.45;;;3.90;;
72573;SDS011;60603;52.548;13.420;2023-11-18T10:16:45;6.20;;;3.03;;
72573;SDS011;60603;52.548;13.420;2023-11-18T10:21:45;7.85;;;3.55;;
72573;SDS011;60603;52.548;13.420;2023-11-18T10:24:15;7.45;;;3.63;;
72573;SDS011;60603;52.548;13.420;2023-11-18T10:26:54;7.97;;;3.47;;
72573;SDS011;60603;52.548;13.420;2023-11-18T10:29:24;8.70;;;3.50;;
72573;SDS011;60603;52.548;13.420;2023-11-18T10:32:29;8.93;;;3.90;;
72573;SDS011;60603;52.548;13.420;2023-11-18T10:34:48;7.40;;;3.75;;
72573;SDS011;60603;52.548;13.420;2023-11-18T10:37:16;8.35;;;3.65;;
72573;SDS011;60603;52.548;13.420;2023-11-18T10:39:46;7.93;;;3.83;;
72573;SDS011;60603;52.548;13.420;2023-11-18T10:42:17;8.45;;;3.33;;
72573;SDS011;60603;52.548;13.420;2023-11-18T10:44:54;10.43;;;4.55;;
72573;SDS011;60603;52.548;13.420;2023-11-18T10:47:27;8.68;;;4.55;;
72573;SDS011;60603;52.548;13.420;2023-11-18T10:49:55;8.30;;;3.72;;
72573;SDS011;60603;52.548;13.420;2023-11-18T10:52:24;8.00;;;3.88;;
72573;SDS011;60603;52.548;13.420;2023-11-18T10:54:52;8.75;;;4.00;;
72573;SDS011;60603;52.548;13.420;2023-11-18T11:00:00;7.85;;;3.70;;
72573;SDS011;60603;52.548;13.420;2023-11-18T11:02:31;6.93;;;3.20;;
72573;SDS011;60603;52.548;13.420;2023-11-18T11:05:02;7.45;;;3.42;;
72573;SDS011;60603;52.548;13.420;2023-11-18T11:07:29;7.15;;;3.05;;
72573;SDS011;60603;52.548;13.420;2023-11-18T11:09:59;7.25;;;3.38;;
72573;SDS011;60603;52.548;13.420;2023-11-18T11:12:34;7.80;;;3.83;;
72573;SDS011;60603;52.548;13.420;2023-11-18T11:17:40;8.27;;;4.20;;
72573;SDS011;60603;52.548;13.420;2023-11-18T11:20:13;7.35;;;3.80;;
72573;SDS011;60603;52.548;13.420;2023-11-18T11:22:56;6.70;;;3.88;;
72573;SDS011;60603;52.548;13.420;2023-11-18T11:28:20;6.93;;;3.22;;
72573;SDS011;60603;52.548;13.420;2023-11-18T11:33:38;12.05;;;5.43;;
72573;SDS011;60603;52.548;13.420;2023-11-18T11:36:17;14.32;;;4.35;;
72573;SDS011;60603;52.548;13.420;2023-11-18T11:38:52;9.93;;;5.05;;
72573;SDS011;60603;52.548;13.420;2023-11-18T11:41:23;8.98;;;4.10;;
72573;SDS011;60603;52.548;13.420;2023-11-18T11:43:53;7.80;;;3.35;;
72573;SDS011;60603;52.548;13.420;2023-11-18T11:46:25;7.93;;;3.45;;
72573;SDS011;60603;52.548;13.420;2023-11-18T11:49:00;10.15;;;4.97;;
72573;SDS011;60603;52.548;13.420;2023-11-18T11:51:37;7.82;;;3.67;;
72573;SDS011;60603;52.548;13.420;2023-11-18T11:54:14;11.57;;;5.40;;
72573;SDS011;60603;52.548;13.420;2023-11-18T11:57:04;8.00;;;3.80;;
72573;SDS011;60603;52.548;13.420;2023-11-18T11:59:53;9.23;;;4.25;;
72573;SDS011;60603;52.548;13.420;2023-11-18T12:02:25;10.82;;;4.95;;
72573;SDS011;60603;52.548;13.420;2023-11-18T12:04:56;10.45;;;5.22;;
72573;SDS011;60603;52.548;13.420;2023-11-18T12:07:25;11.32;;;5.43;;
72573;SDS011;60603;52.548;13.420;2023-11-18T12:09:59;10.73;;;5.18;;
72573;SDS011;60603;52.548;13.420;2023-11-18T12:12:27;8.75;;;4.85;;
72573;SDS011;60603;52.548;13.420;2023-11-18T12:14:55;10.10;;;4.50;;
72573;SDS011;60603;52.548;13.420;2023-11-18T12:23:24;9.55;;;4.85;;
72573;SDS011;60603;52.548;13.420;2023-11-18T12:25:53;9.27;;;4.20;;
72573;SDS011;60603;52.548;13.420;2023-11-18T12:28:26;9.63;;;4.15;;
72573;SDS011;60603;52.548;13.420;2023-11-18T12:30:54;7.72;;;4.30;;
72573;SDS011;60603;52.548;13.420;2023-11-18T12:33:25;8.50;;;4.40;;
72573;SDS011;60603;52.548;13.420;2023-11-18T12:36:12;8.63;;;3.80;;
72573;SDS011;60603;52.548;13.420;2023-11-18T12:46:54;7.78;;;3.63;;
72573;SDS011;60603;52.548;13.420;2023-11-18T12:49:22;8.52;;;4.20;;
72573;SDS011;60603;52.548;13.420;2023-11-18T12:51:51;7.85;;;4.25;;
72573;SDS011;60603;52.548;13.420;2023-11-18T12:54:19;10.55;;;4.00;;
72573;SDS011;60603;52.548;13.420;2023-11-18T12:56:51;10.68;;;3.90;;
72573;SDS011;60603;52.548;13.420;2023-11-18T12:59:20;7.55;;;4.03;;
72573;SDS011;60603;52.548;13.420;2023-11-18T13:01:51;8.85;;;3.90;;
72573;SDS011;60603;52.548;13.420;2023-11-18T13:04:20;9.95;;;3.97;;
72573;SDS011;60603;52.548;13.420;2023-11-18T13:06:48;9.30;;;3.65;;
72573;SDS011;60603;52.548;13.420;2023-11-18T13:09:15;7.00;;;3.55;;
72573;SDS011;60603;52.548;13.420;2023-11-18T13:11:55;7.72;;;3.80;;
72573;SDS011;60603;52.548;13.420;2023-11-18T13:14:23;7.18;;;3.72;;
72573;SDS011;60603;52.548;13.420;2023-11-18T13:16:53;7.22;;;2.90;;
72573;SDS011;60603;52.548;13.420;2023-11-18T13:19:27;6.82;;;3.08;;
72573;SDS011;60603;52.548;13.420;2023-11-18T13:21:58;7.05;;;2.90;;
72573;SDS011;60603;52.548;13.420;2023-11-18T13:24:28;6.90;;;2.75;;
72573;SDS011;60603;52.548;13.420;2023-11-18T13:26:56;7.55;;;3.28;;
72573;SDS011;60603;52.548;13.420;2023-11-18T13:29:23;9.40;;;3.80;;
72573;SDS011;60603;52.548;13.420;2023-11-18T13:31:53;9.65;;;4.30;;
72573;SDS011;60603;52.548;13.420;2023-11-18T13:34:20;9.68;;;4.10;;
72573;SDS011;60603;52.548;13.420;2023-11-18T13:36:47;12.18;;;4.63;;
72573;SDS011;60603;52.548;13.420;2023-11-18T13:39:20;8.38;;;4.10;;
72573;SDS011;60603;52.548;13.420;2023-11-18T13:41:48;9.85;;;4.57;;
72573;SDS011;60603;52.548;13.420;2023-11-18T13:44:35;10.80;;;4.53;;
72573;SDS011;60603;52.548;13.420;2023-11-18T13:47:05;11.70;;;4.43;;
72573;SDS011;60603;52.548;13.420;2023-11-18T13:49:32;8.43;;;4.00;;
72573;SDS011;60603;52.548;13.420;2023-11-18T13:52:01;8.77;;;3.83;;
72573;SDS011;60603;52.548;13.420;2023-11-18T13:54:28;7.60;;;3.13;;
72573;SDS011;60603;52.548;13.420;2023-11-18T13:56:58;7.90;;;3.70;;
72573;SDS011;60603;52.548;13.420;2023-11-18T13:59:25;8.82;;;3.67;;
72573;SDS011;60603;52.548;13.420;2023-11-18T14:01:56;7.05;;;3.45;;
72573;SDS011;60603;52.548;13.420;2023-11-18T14:04:31;8.40;;;3.95;;
72573;SDS011;60603;52.548;13.420;2023-11-18T14:07:00;12.18;;;3.92;;
72573;SDS011;60603;52.548;13.420;2023-11-18T14:09:36;9.27;;;3.80;;
72573;SDS011;60603;52.548;13.420;2023-11-18T14:12:09;7.60;;;3.78;;
72573;SDS011;60603;52.548;13.420;2023-11-18T14:14:36;10.93;;;4.18;;
72573;SDS011;60603;52.548;13.420;2023-11-18T14:17:04;11.15;;;3.95;;
72573;SDS011;60603;52.548;13.420;2023-11-18T14:19:32;8.30;;;3.03;;
72573;SDS011;60603;52.548;13.420;2023-11-18T14:22:02;7.10;;;3.45;;
72573;SDS011;60603;52.548;13.420;2023-11-18T14:24:33;8.38;;;3.65;;
72573;SDS011;60603;52.548;13.420;2023-11-18T14:27:00;7.43;;;3.30;;
72573;SDS011;60603;52.548;13.420;2023-11-18T14:29:27;8.90;;;3.80;;
72573;SDS011;60603;52.548;13.420;2023-11-18T14:31:56;10.73;;;3.85;;
72573;SDS011;60603;52.548;13.420;2023-11-18T14:34:23;10.13;;;4.72;;
72573;SDS011;60603;52.548;13.420;2023-11-18T14:36:51;7.78;;;3.60;;
72573;SDS011;60603;52.548;13.420;2023-11-18T14:39:18;7.90;;;3.78;;
72573;SDS011;60603;52.548;13.420;2023-11-18T14:41:49;10.85;;;5.20;;
72573;SDS011;60603;52.548;13.420;2023-11-18T14:44:16;7.53;;;3.92;;
72573;SDS011;60603;52.548;13.420;2023-11-18T14:46:45;9.93;;;4.18;;
72573;SDS011;60603;52.548;13.420;2023-11-18T14:49:15;11.50;;;4.85;;
72573;SDS011;60603;52.548;13.420;2023-11-18T14:51:42;12.50;;;5.38;;
72573;SDS011;60603;52.548;13.420;2023-11-18T14:54:09;11.93;;;5.57;;
72573;SDS011;60603;52.548;13.420;2023-11-18T14:56:37;13.13;;;5.35;;
72573;SDS011;60603;52.548;13.420;2023-11-18T14:59:04;13.82;;;5.93;;
72573;SDS011;60603;52.548;13.420;2023-11-18T15:01:34;10.13;;;4.47;;
72573;SDS011;60603;52.548;13.420;2023-11-18T15:04:02;12.30;;;5.47;;
72573;SDS011;60603;52.548;13.420;2023-11-18T15:08:59;13.07;;;4.65;;
72573;SDS011;60603;52.548;13.420;2023-11-18T15:11:26;10.05;;;4.65;;
72573;SDS011;60603;52.548;13.420;2023-11-18T15:13:53;10.77;;;4.75;;
72573;SDS011;60603;52.548;13.420;2023-11-18T15:16:20;12.63;;;5.32;;
72573;SDS011;60603;52.548;13.420;2023-11-18T15:18:47;12.88;;;4.72;;
72573;SDS011;60603;52.548;13.420;2023-11-18T15:21:16;14.13;;;5.45;;